sensor_id;sensor_type;location;lat;lon;timestamp;pressure;altitude;pressure_sealevel;temperature;humidity
19108;BME280;9686;48.832;9.126;2023-05-10T00:00:31;97652.50;;;14.63;nan
19108;BME280;9686;48.832;9.126;2023-05-10T00:02:57;97651.78;;;14.58;nan
19108;BME280;9686;48.832;9.126;2023-05-10T00:05:22;97656.88;;;14.63;nan
19108;BME280;9686;48.832;9.126;2023-05-10T00:07:47;97655.97;;;14.64;nan
19108;BME280;9686;48.832;9.126;2023-05-10T00:10:13;97666.50;;;14.62;nan
19108;BME280;9686;48.832;9.126;2023-05-10T00:12:38;97651.03;;;14.53;nan
19108;BME280;9686;48.832;9.126;2023-05-10T00:15:04;97653.97;;;14.42;nan
19108;BME280;9686;48.832;9.126;2023-05-10T00:17:30;97652.03;;;14.49;nan
19108;BME280;9686;48.832;9.126;2023-05-10T00:19:55;97656.56;;;14.44;nan
19108;BME280;9686;48.832;9.126;2023-05-10T00:22:21;97650.81;;;14.31;nan
19108;BME280;9686;48.832;9.126;2023-05-10T00:24:46;97641.41;;;14.24;nan
19108;BME280;9686;48.832;9.126;2023-05-10T00:27:11;97643.03;;;14.28;nan
19108;BME280;9686;48.832;9.126;2023-05-10T00:29:37;97651.84;;;14.26;nan
19108;BME280;9686;48.832;9.126;2023-05-10T00:32:02;97638.88;;;14.21;nan
19108;BME280;9686;48.832;9.126;2023-05-10T00:34:27;97647.56;;;14.23;nan
19108;BME280;9686;48.832;9.126;2023-05-10T00:36:53;97648.50;;;14.20;nan
19108;BME280;9686;48.832;9.126;2023-05-10T00:39:18;97651.25;;;14.16;nan
19108;BME280;9686;48.832;9.126;2023-05-10T00:41:43;97643.41;;;14.16;nan
19108;BME280;9686;48.832;9.126;2023-05-10T00:44:09;97659.00;;;14.20;nan
19108;BME280;9686;48.832;9.126;2023-05-10T00:46:34;97669.56;;;14.17;nan
19108;BME280;9686;48.832;9.126;2023-05-10T00:49:01;97663.41;;;14.18;nan
19108;BME280;9686;48.832;9.126;2023-05-10T00:51:27;97664.31;;;14.17;nan
19108;BME280;9686;48.832;9.126;2023-05-10T00:53:52;97668.81;;;14.14;nan
19108;BME280;9686;48.832;9.126;2023-05-10T00:56:18;97673.94;;;14.17;nan
19108;BME280;9686;48.832;9.126;2023-05-10T00:58:43;97681.13;;;14.10;nan
19108;BME280;9686;48.832;9.126;2023-05-10T01:01:09;97670.75;;;14.07;nan
19108;BME280;9686;48.832;9.126;2023-05-10T01:03:34;97683.06;;;14.04;nan
19108;BME280;9686;48.832;9.126;2023-05-10T01:06:01;97677.13;;;13.97;nan
19108;BME280;9686;48.832;9.126;2023-05-10T01:08:26;97672.84;;;13.95;nan
19108;BME280;9686;48.832;9.126;2023-05-10T01:10:52;97673.66;;;13.97;nan
19108;BME280;9686;48.832;9.126;2023-05-10T01:13:38;97674.81;;;13.86;nan
19108;BME280;9686;48.832;9.126;2023-05-10T01:16:04;97669.53;;;13.88;nan
19108;BME280;9686;48.832;9.126;2023-05-10T01:18:33;97668.22;;;14.03;nan
19108;BME280;9686;48.832;9.126;2023-05-10T01:27:09;97671.84;;;13.99;nan
19108;BME280;9686;48.832;9.126;2023-05-10T01:33:09;97683.97;;;14.03;nan
19108;BME280;9686;48.832;9.126;2023-05-10T01:35:40;97681.59;;;14.25;nan
19108;BME280;9686;48.832;9.126;2023-05-10T01:38:17;97673.66;;;14.26;nan
19108;BME280;9686;48.832;9.126;2023-05-10T01:40:55;97670.09;;;14.29;nan
19108;BME280;9686;48.832;9.126;2023-05-10T01:43:28;97661.13;;;14.37;nan
19108;BME280;9686;48.832;9.126;2023-05-10T01:46:03;97670.09;;;14.29;nan
19108;BME280;9686;48.832;9.126;2023-05-10T01:48:37;97676.34;;;14.25;nan
19108;BME280;9686;48.832;9.126;2023-05-10T01:51:05;97669.25;;;14.28;nan
19108;BME280;9686;48.832;9.126;2023-05-10T01:53:32;97679.56;;;14.34;nan
19108;BME280;9686;48.832;9.126;2023-05-10T01:56:00;97680.44;;;14.35;nan
19108;BME280;9686;48.832;9.126;2023-05-10T01:58:29;97681.00;;;14.46;nan
19108;BME280;9686;48.832;9.126;2023-05-10T02:00:57;97688.00;;;14.45;nan
19108;BME280;9686;48.832;9.126;2023-05-10T02:03:25;97684.72;;;14.37;nan
19108;BME280;9686;48.832;9.126;2023-05-10T02:05:53;97688.81;;;14.47;nan
19108;BME280;9686;48.832;9.126;2023-05-10T02:08:21;97695.72;;;14.50;nan
19108;BME280;9686;48.832;9.126;2023-05-10T02:10:49;97692.28;;;14.48;nan
19108;BME280;9686;48.832;9.126;2023-05-10T02:13:16;97690.47;;;14.50;nan
19108;BME280;9686;48.832;9.126;2023-05-10T02:15:42;97687.94;;;14.47;nan
19108;BME280;9686;48.832;9.126;2023-05-10T02:18:09;97690.63;;;14.45;nan
19108;BME280;9686;48.832;9.126;2023-05-10T02:20:36;97683.50;;;14.49;nan
19108;BME280;9686;48.832;9.126;2023-05-10T02:23:03;97688.84;;;14.46;nan
19108;BME280;9686;48.832;9.126;2023-05-10T02:25:30;97694.88;;;14.49;nan
19108;BME280;9686;48.832;9.126;2023-05-10T02:27:57;97688.81;;;14.47;nan
19108;BME280;9686;48.832;9.126;2023-05-10T02:30:25;97703.22;;;14.33;nan
19108;BME280;9686;48.832;9.126;2023-05-10T02:32:51;97708.41;;;14.34;nan
19108;BME280;9686;48.832;9.126;2023-05-10T02:35:17;97717.28;;;14.29;nan
19108;BME280;9686;48.832;9.126;2023-05-10T02:37:43;97722.94;;;14.15;nan
19108;BME280;9686;48.832;9.126;2023-05-10T02:40:10;97726.28;;;14.20;nan
19108;BME280;9686;48.832;9.126;2023-05-10T02:42:38;97729.53;;;14.28;nan
19108;BME280;9686;48.832;9.126;2023-05-10T02:45:10;97726.00;;;14.29;nan
19108;BME280;9686;48.832;9.126;2023-05-10T02:47:37;97722.50;;;14.30;nan
19108;BME280;9686;48.832;9.126;2023-05-10T02:50:03;97720.56;;;14.37;nan
19108;BME280;9686;48.832;9.126;2023-05-10T02:52:38;97716.84;;;14.45;nan
19108;BME280;9686;48.832;9.126;2023-05-10T02:55:05;97718.72;;;14.40;nan
19108;BME280;9686;48.832;9.126;2023-05-10T02:57:34;97716.09;;;14.40;nan
19108;BME280;9686;48.832;9.126;2023-05-10T03:00:02;97724.91;;;14.38;nan
19108;BME280;9686;48.832;9.126;2023-05-10T03:02:28;97717.03;;;14.38;nan
19108;BME280;9686;48.832;9.126;2023-05-10T03:04:55;97726.63;;;14.39;nan
19108;BME280;9686;48.832;9.126;2023-05-10T03:07:20;97724.91;;;14.38;nan
19108;BME280;9686;48.832;9.126;2023-05-10T03:09:47;97731.72;;;14.45;nan
19108;BME280;9686;48.832;9.126;2023-05-10T03:18:06;97737.06;;;14.40;nan
19108;BME280;9686;48.832;9.126;2023-05-10T03:20:43;97741.25;;;14.47;nan
19108;BME280;9686;48.832;9.126;2023-05-10T03:23:40;97736.78;;;14.51;nan
19108;BME280;9686;48.832;9.126;2023-05-10T03:26:07;97737.78;;;14.47;nan
19108;BME280;9686;48.832;9.126;2023-05-10T03:28:34;97738.63;;;14.47;nan
19108;BME280;9686;48.832;9.126;2023-05-10T03:31:01;97742.53;;;14.33;nan
19108;BME280;9686;48.832;9.126;2023-05-10T03:33:27;97731.88;;;14.39;nan
19108;BME280;9686;48.832;9.126;2023-05-10T03:35:52;97740.44;;;14.45;nan
19108;BME280;9686;48.832;9.126;2023-05-10T03:38:18;97746.50;;;14.47;nan
19108;BME280;9686;48.832;9.126;2023-05-10T03:40:43;97736.69;;;14.54;nan
19108;BME280;9686;48.832;9.126;2023-05-10T03:43:08;97740.31;;;14.50;nan
19108;BME280;9686;48.832;9.126;2023-05-10T03:45:34;97741.31;;;14.46;nan
19108;BME280;9686;48.832;9.126;2023-05-10T03:47:59;97738.59;;;14.49;nan
19108;BME280;9686;48.832;9.126;2023-05-10T03:50:25;97734.16;;;14.51;nan
19108;BME280;9686;48.832;9.126;2023-05-10T03:52:51;97738.59;;;14.49;nan
19108;BME280;9686;48.832;9.126;2023-05-10T03:55:16;97740.31;;;14.50;nan
19108;BME280;9686;48.832;9.126;2023-05-10T03:57:42;97751.50;;;14.55;nan
19108;BME280;9686;48.832;9.126;2023-05-10T04:00:08;97748.09;;;14.53;nan
19108;BME280;9686;48.832;9.126;2023-05-10T04:02:33;97751.78;;;14.46;nan
19108;BME280;9686;48.832;9.126;2023-05-10T04:04:59;97753.47;;;14.48;nan
19108;BME280;9686;48.832;9.126;2023-05-10T04:07:24;97750.09;;;14.45;nan
19108;BME280;9686;48.832;9.126;2023-05-10T04:09:49;97754.38;;;14.47;nan
19108;BME280;9686;48.832;9.126;2023-05-10T04:12:15;97759.44;;;14.54;nan
19108;BME280;9686;48.832;9.126;2023-05-10T04:14:40;97756.84;;;14.52;nan
19108;BME280;9686;48.832;9.126;2023-05-10T04:17:05;97755.84;;;14.56;nan
19108;BME280;9686;48.832;9.126;2023-05-10T04:19:31;97752.47;;;14.53;nan
19108;BME280;9686;48.832;9.126;2023-05-10T04:21:57;97747.09;;;14.57;nan
19108;BME280;9686;48.832;9.126;2023-05-10T04:24:23;97748.84;;;14.58;nan
19108;BME280;9686;48.832;9.126;2023-05-10T04:26:48;97749.69;;;14.59;nan
19108;BME280;9686;48.832;9.126;2023-05-10T04:29:13;97753.03;;;14.64;nan
19108;BME280;9686;48.832;9.126;2023-05-10T04:31:39;97761.00;;;14.61;nan
19108;BME280;9686;48.832;9.126;2023-05-10T04:34:04;97756.59;;;14.61;nan
19108;BME280;9686;48.832;9.126;2023-05-10T04:36:30;97759.72;;;14.74;nan
19108;BME280;9686;48.832;9.126;2023-05-10T04:38:55;97758.13;;;14.68;nan
19108;BME280;9686;48.832;9.126;2023-05-10T04:41:20;97751.09;;;14.70;nan
19108;BME280;9686;48.832;9.126;2023-05-10T04:43:46;97758.22;;;14.65;nan
19108;BME280;9686;48.832;9.126;2023-05-10T04:46:14;97756.38;;;14.69;nan
19108;BME280;9686;48.832;9.126;2023-05-10T04:48:39;97762.44;;;14.71;nan
19108;BME280;9686;48.832;9.126;2023-05-10T04:51:04;97765.56;;;14.84;nan
19108;BME280;9686;48.832;9.126;2023-05-10T04:53:31;97769.91;;;14.85;nan
19108;BME280;9686;48.832;9.126;2023-05-10T04:55:56;97768.84;;;14.90;nan
19108;BME280;9686;48.832;9.126;2023-05-10T04:58:22;97768.00;;;14.90;nan
19108;BME280;9686;48.832;9.126;2023-05-10T05:00:47;97778.53;;;14.88;nan
19108;BME280;9686;48.832;9.126;2023-05-10T05:03:12;97776.00;;;14.85;nan
19108;BME280;9686;48.832;9.126;2023-05-10T05:05:37;97773.00;;;14.97;nan
19108;BME280;9686;48.832;9.126;2023-05-10T05:08:03;97775.69;;;14.96;nan
19108;BME280;9686;48.832;9.126;2023-05-10T05:10:28;97777.75;;;15.14;nan
19108;BME280;9686;48.832;9.126;2023-05-10T05:12:54;97781.47;;;14.77;nan
19108;BME280;9686;48.832;9.126;2023-05-10T05:15:19;97783.31;;;14.74;nan
19108;BME280;9686;48.832;9.126;2023-05-10T05:17:44;97790.03;;;14.84;nan
19108;BME280;9686;48.832;9.126;2023-05-10T05:20:10;97796.16;;;14.85;nan
19108;BME280;9686;48.832;9.126;2023-05-10T05:22:36;97795.16;;;14.89;nan
19108;BME280;9686;48.832;9.126;2023-05-10T05:25:02;97786.88;;;15.01;nan
19108;BME280;9686;48.832;9.126;2023-05-10T05:27:29;97783.16;;;15.09;nan
19108;BME280;9686;48.832;9.126;2023-05-10T05:29:56;97787.56;;;15.07;nan
19108;BME280;9686;48.832;9.126;2023-05-10T05:32:22;97795.16;;;15.17;nan
19108;BME280;9686;48.832;9.126;2023-05-10T05:34:48;97794.16;;;15.21;nan
19108;BME280;9686;48.832;9.126;2023-05-10T05:37:22;97791.53;;;15.21;nan
19108;BME280;9686;48.832;9.126;2023-05-10T05:39:49;97789.56;;;15.27;nan
19108;BME280;9686;48.832;9.126;2023-05-10T05:42:15;97794.75;;;15.29;nan
19108;BME280;9686;48.832;9.126;2023-05-10T05:44:41;97794.81;;;15.27;nan
19108;BME280;9686;48.832;9.126;2023-05-10T05:47:07;97783.31;;;15.31;nan
19108;BME280;9686;48.832;9.126;2023-05-10T05:49:32;97792.09;;;15.30;nan
19108;BME280;9686;48.832;9.126;2023-05-10T05:52:02;97793.75;;;15.33;nan
19108;BME280;9686;48.832;9.126;2023-05-10T05:54:27;97788.50;;;15.33;nan
19108;BME280;9686;48.832;9.126;2023-05-10T05:57:00;97790.53;;;15.25;nan
19108;BME280;9686;48.832;9.126;2023-05-10T05:59:26;97792.03;;;15.32;nan
19108;BME280;9686;48.832;9.126;2023-05-10T06:01:52;97799.09;;;15.30;nan
19108;BME280;9686;48.832;9.126;2023-05-10T06:04:17;97791.88;;;15.38;nan
19108;BME280;9686;48.832;9.126;2023-05-10T06:06:43;97798.84;;;15.39;nan
19108;BME280;9686;48.832;9.126;2023-05-10T06:09:09;97795.97;;;15.47;nan
19108;BME280;9686;48.832;9.126;2023-05-10T06:11:34;97801.81;;;15.55;nan
19108;BME280;9686;48.832;9.126;2023-05-10T06:14:00;97803.47;;;15.57;nan
19108;BME280;9686;48.832;9.126;2023-05-10T06:16:26;97801.63;;;15.61;nan
19108;BME280;9686;48.832;9.126;2023-05-10T06:18:52;97802.63;;;15.57;nan
19108;BME280;9686;48.832;9.126;2023-05-10T06:21:17;97813.84;;;15.63;nan
19108;BME280;9686;48.832;9.126;2023-05-10T06:23:42;97802.16;;;15.72;nan
19108;BME280;9686;48.832;9.126;2023-05-10T06:26:09;97800.44;;;15.71;nan
19108;BME280;9686;48.832;9.126;2023-05-10T06:28:34;97796.06;;;15.71;nan
19108;BME280;9686;48.832;9.126;2023-05-10T06:31:00;97803.88;;;15.73;nan
19108;BME280;9686;48.832;9.126;2023-05-10T06:33:25;97796.22;;;15.67;nan
19108;BME280;9686;48.832;9.126;2023-05-10T06:35:51;97804.00;;;15.70;nan
19108;BME280;9686;48.832;9.126;2023-05-10T06:38:16;97799.84;;;15.63;nan
19108;BME280;9686;48.832;9.126;2023-05-10T06:40:42;97806.63;;;15.70;nan
19108;BME280;9686;48.832;9.126;2023-05-10T06:43:08;97804.53;;;15.80;nan
19108;BME280;9686;48.832;9.126;2023-05-10T06:45:33;97799.91;;;15.86;nan
19108;BME280;9686;48.832;9.126;2023-05-10T06:47:58;97803.50;;;15.84;nan
19108;BME280;9686;48.832;9.126;2023-05-10T06:50:24;97801.63;;;15.89;nan
19108;BME280;9686;48.832;9.126;2023-05-10T06:52:49;97796.25;;;15.92;nan
19108;BME280;9686;48.832;9.126;2023-05-10T06:55:14;97812.16;;;15.87;nan
19108;BME280;9686;48.832;9.126;2023-05-10T06:57:40;97805.75;;;15.96;nan
19108;BME280;9686;48.832;9.126;2023-05-10T07:00:06;97796.13;;;15.95;nan
19108;BME280;9686;48.832;9.126;2023-05-10T07:02:31;97796.63;;;16.06;nan
19108;BME280;9686;48.832;9.126;2023-05-10T07:04:57;97798.06;;;15.90;nan
19108;BME280;9686;48.832;9.126;2023-05-10T07:07:22;97801.06;;;16.04;nan
19108;BME280;9686;48.832;9.126;2023-05-10T07:09:47;97794.09;;;16.03;nan
19108;BME280;9686;48.832;9.126;2023-05-10T07:12:14;97797.25;;;16.13;nan
19108;BME280;9686;48.832;9.126;2023-05-10T07:14:40;97796.56;;;16.08;nan
19108;BME280;9686;48.832;9.126;2023-05-10T07:17:05;97790.19;;;16.15;nan
19108;BME280;9686;48.832;9.126;2023-05-10T07:19:30;97800.28;;;16.27;nan
19108;BME280;9686;48.832;9.126;2023-05-10T07:21:57;97795.75;;;16.30;nan
19108;BME280;9686;48.832;9.126;2023-05-10T07:24:23;97796.56;;;16.32;nan
19108;BME280;9686;48.832;9.126;2023-05-10T07:26:49;97796.66;;;16.29;nan
19108;BME280;9686;48.832;9.126;2023-05-10T07:29:14;97797.69;;;16.25;nan
19108;BME280;9686;48.832;9.126;2023-05-10T07:31:40;97799.75;;;16.42;nan
19108;BME280;9686;48.832;9.126;2023-05-10T07:34:07;97802.38;;;16.42;nan
19108;BME280;9686;48.832;9.126;2023-05-10T07:36:32;97804.66;;;16.51;nan
19108;BME280;9686;48.832;9.126;2023-05-10T07:38:57;97798.13;;;16.61;nan
19108;BME280;9686;48.832;9.126;2023-05-10T07:41:23;97799.69;;;16.69;nan
19108;BME280;9686;48.832;9.126;2023-05-10T07:43:48;97795.22;;;16.71;nan
19108;BME280;9686;48.832;9.126;2023-05-10T07:46:14;97802.38;;;16.67;nan
19108;BME280;9686;48.832;9.126;2023-05-10T07:48:39;97801.41;;;16.70;nan
19108;BME280;9686;48.832;9.126;2023-05-10T07:51:04;97805.44;;;16.78;nan
19108;BME280;9686;48.832;9.126;2023-05-10T07:53:31;97807.50;;;16.93;nan
19108;BME280;9686;48.832;9.126;2023-05-10T07:55:57;97798.09;;;16.86;nan
19108;BME280;9686;48.832;9.126;2023-05-10T07:58:24;97802.41;;;16.89;nan
19108;BME280;9686;48.832;9.126;2023-05-10T08:00:49;97799.63;;;16.70;nan
19108;BME280;9686;48.832;9.126;2023-05-10T08:03:15;97809.91;;;16.76;nan
19108;BME280;9686;48.832;9.126;2023-05-10T08:05:40;97815.06;;;16.79;nan
19108;BME280;9686;48.832;9.126;2023-05-10T08:08:06;97807.22;;;16.78;nan
19108;BME280;9686;48.832;9.126;2023-05-10T08:10:31;97806.25;;;16.80;nan
19108;BME280;9686;48.832;9.126;2023-05-10T08:12:56;97809.44;;;16.88;nan
19108;BME280;9686;48.832;9.126;2023-05-10T08:15:23;97805.56;;;16.99;nan
19108;BME280;9686;48.832;9.126;2023-05-10T08:17:48;97804.09;;;16.91;nan
19108;BME280;9686;48.832;9.126;2023-05-10T08:20:14;97802.34;;;16.90;nan
19108;BME280;9686;48.832;9.126;2023-05-10T08:22:42;97809.00;;;17.01;nan
19108;BME280;9686;48.832;9.126;2023-05-10T08:25:07;97799.63;;;16.93;nan
19108;BME280;9686;48.832;9.126;2023-05-10T08:27:32;97804.09;;;16.91;nan
19108;BME280;9686;48.832;9.126;2023-05-10T08:29:58;97804.53;;;17.03;nan
19108;BME280;9686;48.832;9.126;2023-05-10T08:32:23;97799.94;;;17.08;nan
19108;BME280;9686;48.832;9.126;2023-05-10T08:34:48;97811.25;;;17.10;nan
19108;BME280;9686;48.832;9.126;2023-05-10T08:37:14;97805.31;;;17.05;nan
19108;BME280;9686;48.832;9.126;2023-05-10T08:39:39;97810.59;;;17.05;nan
19108;BME280;9686;48.832;9.126;2023-05-10T08:42:06;97811.50;;;17.04;nan
19108;BME280;9686;48.832;9.126;2023-05-10T08:44:34;97812.13;;;17.10;nan
19108;BME280;9686;48.832;9.126;2023-05-10T08:47:04;97797.69;;;17.20;nan
19108;BME280;9686;48.832;9.126;2023-05-10T08:49:31;97811.03;;;17.38;nan
19108;BME280;9686;48.832;9.126;2023-05-10T08:51:57;97807.75;;;17.54;nan
19108;BME280;9686;48.832;9.126;2023-05-10T08:54:24;97802.72;;;17.48;nan
19108;BME280;9686;48.832;9.126;2023-05-10T08:56:50;97803.38;;;17.53;nan
19108;BME280;9686;48.832;9.126;2023-05-10T08:59:15;97812.81;;;17.37;nan
19108;BME280;9686;48.832;9.126;2023-05-10T09:01:42;97812.28;;;17.51;nan
19108;BME280;9686;48.832;9.126;2023-05-10T09:04:09;97810.00;;;17.42;nan
19108;BME280;9686;48.832;9.126;2023-05-10T09:06:34;97814.34;;;17.43;nan
19108;BME280;9686;48.832;9.126;2023-05-10T09:09:00;97809.72;;;17.71;nan
19108;BME280;9686;48.832;9.126;2023-05-10T09:11:26;97817.63;;;17.71;nan
19108;BME280;9686;48.832;9.126;2023-05-10T09:13:54;97817.97;;;17.84;nan
19108;BME280;9686;48.832;9.126;2023-05-10T09:16:20;97830.09;;;17.88;nan
19108;BME280;9686;48.832;9.126;2023-05-10T09:18:46;97821.78;;;17.99;nan
19108;BME280;9686;48.832;9.126;2023-05-10T09:21:11;97823.13;;;17.87;nan
19108;BME280;9686;48.832;9.126;2023-05-10T09:23:37;97826.22;;;17.76;nan
19108;BME280;9686;48.832;9.126;2023-05-10T09:26:04;97825.44;;;17.95;nan
19108;BME280;9686;48.832;9.126;2023-05-10T09:28:34;97825.84;;;18.06;nan
19108;BME280;9686;48.832;9.126;2023-05-10T09:30:59;97814.78;;;17.98;nan
19108;BME280;9686;48.832;9.126;2023-05-10T09:33:25;97829.41;;;18.05;nan
19108;BME280;9686;48.832;9.126;2023-05-10T09:35:51;97823.78;;;17.92;nan
19108;BME280;9686;48.832;9.126;2023-05-10T09:38:17;97825.88;;;17.84;nan
19108;BME280;9686;48.832;9.126;2023-05-10T09:40:51;97824.19;;;17.83;nan
19108;BME280;9686;48.832;9.126;2023-05-10T09:43:20;97836.28;;;17.65;nan
19108;BME280;9686;48.832;9.126;2023-05-10T09:45:48;97835.19;;;17.72;nan
19108;BME280;9686;48.832;9.126;2023-05-10T09:48:14;97837.13;;;17.67;nan
19108;BME280;9686;48.832;9.126;2023-05-10T09:50:40;97845.50;;;17.55;nan
19108;BME280;9686;48.832;9.126;2023-05-10T09:53:06;97845.31;;;17.60;nan
19108;BME280;9686;48.832;9.126;2023-05-10T09:55:43;97842.13;;;17.51;nan
19108;BME280;9686;48.832;9.126;2023-05-10T09:58:15;97840.75;;;17.63;nan
19108;BME280;9686;48.832;9.126;2023-05-10T10:00:42;97845.03;;;17.67;nan
19108;BME280;9686;48.832;9.126;2023-05-10T10:03:15;97843.34;;;17.65;nan
19108;BME280;9686;48.832;9.126;2023-05-10T10:05:42;97849.53;;;17.64;nan
19108;BME280;9686;48.832;9.126;2023-05-10T10:08:08;97848.84;;;17.37;nan
19108;BME280;9686;48.832;9.126;2023-05-10T10:10:33;97855.72;;;17.17;nan
19108;BME280;9686;48.832;9.126;2023-05-10T10:12:59;97853.22;;;17.14;nan
19108;BME280;9686;48.832;9.126;2023-05-10T10:15:25;97837.16;;;17.22;nan
19108;BME280;9686;48.832;9.126;2023-05-10T10:17:51;97847.94;;;17.60;nan
19108;BME280;9686;48.832;9.126;2023-05-10T10:20:18;97843.09;;;17.93;nan
19108;BME280;9686;48.832;9.126;2023-05-10T10:22:44;97837.84;;;18.13;nan
19108;BME280;9686;48.832;9.126;2023-05-10T10:25:16;97841.38;;;18.34;nan
19108;BME280;9686;48.832;9.126;2023-05-10T10:35:30;97840.50;;;18.13;nan
19108;BME280;9686;48.832;9.126;2023-05-10T10:37:56;97839.19;;;18.43;nan
19108;BME280;9686;48.832;9.126;2023-05-10T10:40:28;97836.53;;;18.43;nan
19108;BME280;9686;48.832;9.126;2023-05-10T10:42:55;97838.91;;;18.70;nan
19108;BME280;9686;48.832;9.126;2023-05-10T10:45:21;97839.53;;;18.76;nan
19108;BME280;9686;48.832;9.126;2023-05-10T10:47:47;97842.31;;;18.92;nan
19108;BME280;9686;48.832;9.126;2023-05-10T10:50:13;97841.31;;;18.76;nan
19108;BME280;9686;48.832;9.126;2023-05-10T10:52:40;97838.75;;;18.74;nan
19108;BME280;9686;48.832;9.126;2023-05-10T10:55:06;97834.19;;;18.78;nan
19108;BME280;9686;48.832;9.126;2023-05-10T10:57:56;97835.03;;;18.97;nan
19108;BME280;9686;48.832;9.126;2023-05-10T11:00:36;97836.06;;;19.14;nan
19108;BME280;9686;48.832;9.126;2023-05-10T11:03:12;97852.06;;;19.10;nan
19108;BME280;9686;48.832;9.126;2023-05-10T11:05:44;97842.03;;;18.98;nan
19108;BME280;9686;48.832;9.126;2023-05-10T11:08:42;97845.53;;;18.99;nan
19108;BME280;9686;48.832;9.126;2023-05-10T11:11:08;97851.81;;;18.77;nan
19108;BME280;9686;48.832;9.126;2023-05-10T11:13:37;97848.47;;;18.72;nan
19108;BME280;9686;48.832;9.126;2023-05-10T11:16:22;97847.84;;;18.67;nan
19108;BME280;9686;48.832;9.126;2023-05-10T11:19:10;97844.28;;;18.68;nan
19108;BME280;9686;48.832;9.126;2023-05-10T11:24:21;97837.72;;;18.57;nan
19108;BME280;9686;48.832;9.126;2023-05-10T11:26:50;97833.75;;;18.87;nan
19108;BME280;9686;48.832;9.126;2023-05-10T11:29:16;97834.59;;;18.88;nan
19108;BME280;9686;48.832;9.126;2023-05-10T11:31:43;97832.59;;;18.93;nan
19108;BME280;9686;48.832;9.126;2023-05-10T11:34:09;97836.56;;;19.03;nan
19108;BME280;9686;48.832;9.126;2023-05-10T11:36:35;97830.53;;;19.37;nan
19108;BME280;9686;48.832;9.126;2023-05-10T11:39:02;97832.09;;;19.79;nan
19108;BME280;9686;48.832;9.126;2023-05-10T11:41:29;97837.00;;;20.03;nan
19108;BME280;9686;48.832;9.126;2023-05-10T11:43:56;97844.81;;;19.70;nan
19108;BME280;9686;48.832;9.126;2023-05-10T11:46:24;97839.34;;;19.56;nan
19108;BME280;9686;48.832;9.126;2023-05-10T11:48:51;97847.91;;;19.42;nan
19108;BME280;9686;48.832;9.126;2023-05-10T11:51:21;97844.91;;;19.13;nan
19108;BME280;9686;48.832;9.126;2023-05-10T11:53:47;97853.34;;;19.02;nan
19108;BME280;9686;48.832;9.126;2023-05-10T11:56:13;97853.91;;;18.69;nan
19108;BME280;9686;48.832;9.126;2023-05-10T11:58:39;97852.06;;;18.51;nan
19108;BME280;9686;48.832;9.126;2023-05-10T12:01:06;97861.28;;;18.41;nan
19108;BME280;9686;48.832;9.126;2023-05-10T12:03:32;97853.78;;;18.52;nan
19108;BME280;9686;48.832;9.126;2023-05-10T12:05:58;97858.25;;;18.30;nan
19108;BME280;9686;48.832;9.126;2023-05-10T12:08:26;97864.00;;;18.39;nan
19108;BME280;9686;48.832;9.126;2023-05-10T12:10:51;97864.84;;;18.40;nan
19108;BME280;9686;48.832;9.126;2023-05-10T12:13:18;97863.47;;;18.31;nan
19108;BME280;9686;48.832;9.126;2023-05-10T12:15:44;97867.34;;;18.43;nan
19108;BME280;9686;48.832;9.126;2023-05-10T12:18:13;97876.16;;;18.23;nan
19108;BME280;9686;48.832;9.126;2023-05-10T12:20:39;97873.09;;;18.32;nan
19108;BME280;9686;48.832;9.126;2023-05-10T12:23:05;97874.41;;;18.42;nan
19108;BME280;9686;48.832;9.126;2023-05-10T12:25:34;97874.97;;;18.51;nan
19108;BME280;9686;48.832;9.126;2023-05-10T12:28:03;97879.19;;;18.55;nan
19108;BME280;9686;48.832;9.126;2023-05-10T12:30:31;97875.75;;;18.53;nan
19108;BME280;9686;48.832;9.126;2023-05-10T12:33:17;97880.81;;;18.57;nan
19108;BME280;9686;48.832;9.126;2023-05-10T12:35:50;97877.59;;;18.71;nan
19108;BME280;9686;48.832;9.126;2023-05-10T12:38:32;97874.72;;;18.77;nan
19108;BME280;9686;48.832;9.126;2023-05-10T12:41:06;97881.50;;;18.83;nan
19108;BME280;9686;48.832;9.126;2023-05-10T12:43:32;97873.81;;;18.97;nan
19108;BME280;9686;48.832;9.126;2023-05-10T12:46:04;97869.97;;;19.04;nan
19108;BME280;9686;48.832;9.126;2023-05-10T12:48:29;97875.41;;;19.20;nan
19108;BME280;9686;48.832;9.126;2023-05-10T12:50:56;97874.09;;;18.91;nan
19108;BME280;9686;48.832;9.126;2023-05-10T12:53:21;97876.06;;;18.86;nan
19108;BME280;9686;48.832;9.126;2023-05-10T12:55:47;97874.09;;;18.91;nan
19108;BME280;9686;48.832;9.126;2023-05-10T12:58:12;97880.25;;;19.10;nan
19108;BME280;9686;48.832;9.126;2023-05-10T13:00:37;97879.44;;;18.69;nan
19108;BME280;9686;48.832;9.126;2023-05-10T13:03:04;97876.22;;;18.83;nan
19108;BME280;9686;48.832;9.126;2023-05-10T13:05:31;97871.59;;;18.88;nan
19108;BME280;9686;48.832;9.126;2023-05-10T13:07:57;97882.13;;;19.08;nan
19108;BME280;9686;48.832;9.126;2023-05-10T13:10:22;97875.59;;;18.96;nan
19108;BME280;9686;48.832;9.126;2023-05-10T13:12:48;97879.25;;;19.13;nan
19108;BME280;9686;48.832;9.126;2023-05-10T13:15:14;97869.94;;;18.85;nan
19108;BME280;9686;48.832;9.126;2023-05-10T13:17:39;97869.44;;;18.96;nan
19108;BME280;9686;48.832;9.126;2023-05-10T13:20:06;97875.50;;;18.98;nan
19108;BME280;9686;48.832;9.126;2023-05-10T13:22:31;97868.59;;;18.95;nan
19108;BME280;9686;48.832;9.126;2023-05-10T13:24:56;97860.97;;;19.08;nan
19108;BME280;9686;48.832;9.126;2023-05-10T13:27:22;97866.47;;;19.03;nan
19108;BME280;9686;48.832;9.126;2023-05-10T13:29:47;97871.66;;;18.86;nan
19108;BME280;9686;48.832;9.126;2023-05-10T13:32:12;97868.72;;;18.92;nan
19108;BME280;9686;48.832;9.126;2023-05-10T13:34:37;97877.78;;;18.87;nan
19108;BME280;9686;48.832;9.126;2023-05-10T13:37:03;97865.66;;;18.83;nan
19108;BME280;9686;48.832;9.126;2023-05-10T13:39:28;97871.31;;;18.73;nan
19108;BME280;9686;48.832;9.126;2023-05-10T13:41:58;97864.66;;;18.85;nan
19108;BME280;9686;48.832;9.126;2023-05-10T13:44:23;97859.38;;;18.85;nan
19108;BME280;9686;48.832;9.126;2023-05-10T13:46:48;97859.88;;;18.74;nan
19108;BME280;9686;48.832;9.126;2023-05-10T13:49:14;97866.59;;;18.82;nan
19108;BME280;9686;48.832;9.126;2023-05-10T13:51:39;97863.09;;;18.81;nan
19108;BME280;9686;48.832;9.126;2023-05-10T13:54:05;97859.72;;;18.96;nan
19108;BME280;9686;48.832;9.126;2023-05-10T13:56:30;97857.59;;;18.86;nan